createdAt,value
2023-05-12T00:01:33.981Z,100827.19
2023-05-12T00:04:01.957Z,100820.66
2023-05-12T00:06:29.745Z,100830.47
2023-05-12T00:08:57.523Z,100818.28
2023-05-12T00:11:25.391Z,100824.75
2023-05-12T00:13:53.657Z,100827.13
2023-05-12T00:16:21.809Z,100839.69
2023-05-12T00:18:52.191Z,100835.59
2023-05-12T00:21:20.059Z,100823.41
2023-05-12T00:23:47.848Z,100821.03
2023-05-12T00:26:17.464Z,100790.03
2023-05-12T00:28:45.264Z,100776.91
2023-05-12T00:31:13.149Z,100778.63
2023-05-12T00:33:41.178Z,100777.31
2023-05-12T00:36:10.837Z,100782.91
2023-05-12T00:38:38.680Z,100794.06
2023-05-12T00:41:06.492Z,100777.25
2023-05-12T00:43:35.191Z,100781.03
2023-05-12T00:46:06.179Z,100786.94
2023-05-12T00:48:34.686Z,100801.53
2023-05-12T00:51:04.191Z,100785.88
2023-05-12T00:53:47.703Z,100802.31
2023-05-12T00:56:18.258Z,100817.44
2023-05-12T00:58:46.696Z,100804.50
2023-05-12T01:01:14.686Z,100814.78
2023-05-12T01:03:42.577Z,100806.09
2023-05-12T01:06:14.573Z,100796.63
2023-05-12T01:08:43.762Z,100816.78
2023-05-12T01:11:11.536Z,100828.59
2023-05-12T01:13:41.127Z,100797.66
2023-05-12T01:16:11.216Z,100807.84
2023-05-12T01:18:39.427Z,100807.16
2023-05-12T01:21:07.838Z,100797.59
2023-05-12T01:23:38.897Z,100810.34
2023-05-12T01:26:08.801Z,100799.91
2023-05-12T01:28:38.188Z,100792.34
2023-05-12T01:31:08.707Z,100814.19
2023-05-12T01:33:36.985Z,100814.63
2023-05-12T01:36:05.194Z,100802.47
2023-05-12T01:38:32.914Z,100813.66
2023-05-12T01:41:00.885Z,100834.03
2023-05-12T01:43:30.048Z,100839.88
2023-05-12T01:46:01.408Z,100821.25
2023-05-12T01:48:29.201Z,100840.84
2023-05-12T01:50:57.014Z,100835.06
2023-05-12T01:53:24.820Z,100859.69
2023-05-12T01:55:52.587Z,100869.22
2023-05-12T01:58:20.456Z,100886.00
2023-05-12T02:00:49.769Z,100920.16
2023-05-12T02:03:17.648Z,100901.72
2023-05-12T02:05:45.456Z,100931.78
2023-05-12T02:08:13.201Z,100955.81
2023-05-12T02:10:40.879Z,100972.13
2023-05-12T02:13:08.783Z,101003.41
2023-05-12T02:15:36.540Z,101000.81
2023-05-12T02:18:05.774Z,100974.44
2023-05-12T02:20:33.489Z,100971.13
2023-05-12T02:23:03.033Z,100988.91
2023-05-12T02:25:30.835Z,101008.59
2023-05-12T02:27:58.525Z,101027.44
2023-05-12T02:30:26.269Z,101042.84
2023-05-12T02:32:54.038Z,101049.88
2023-05-12T02:35:23.324Z,101041.06
2023-05-12T02:37:51.068Z,101035.94
2023-05-12T02:40:19.137Z,101044.88
2023-05-12T02:42:47.115Z,101038.84
2023-05-12T02:45:14.979Z,101048.81
2023-05-12T02:47:46.690Z,101053.44
2023-05-12T02:50:14.446Z,101055.03
2023-05-12T02:52:43.685Z,101062.81
2023-05-12T02:55:11.505Z,101044.09
2023-05-12T02:57:39.694Z,101059.22
2023-05-12T03:00:08.399Z,101063.69
2023-05-12T03:02:37.153Z,101068.50
2023-05-12T03:05:05.451Z,101076.53
2023-05-12T03:07:33.368Z,101074.84
2023-05-12T03:10:02.670Z,101075.81
2023-05-12T03:12:30.426Z,101078.31
2023-05-12T03:14:58.403Z,101070.22
2023-05-12T03:17:26.419Z,101093.28
2023-05-12T03:19:54.221Z,101090.63
2023-05-12T03:22:22.074Z,101083.38
2023-05-12T03:24:49.818Z,101093.22
2023-05-12T03:27:18.980Z,101094.25
2023-05-12T03:29:46.988Z,101092.78
2023-05-12T03:32:14.990Z,101098.81
2023-05-12T03:34:42.776Z,101108.72
2023-05-12T03:37:10.585Z,101122.91
2023-05-12T03:39:38.748Z,101124.31
2023-05-12T03:42:07.309Z,101108.19
2023-05-12T03:44:36.480Z,101139.31
2023-05-12T03:47:04.405Z,101126.47
2023-05-12T03:49:32.274Z,101109.09
2023-05-12T03:51:59.952Z,101115.72
2023-05-12T03:54:27.750Z,101127.84
2023-05-12T03:56:55.458Z,101121.03
2023-05-12T03:59:23.233Z,101131.16
2023-05-12T04:01:53.779Z,101111.78
2023-05-12T04:04:21.729Z,101099.56
2023-05-12T04:06:49.388Z,101079.63
2023-05-12T04:09:17.327Z,101074.88
2023-05-12T04:11:45.219Z,101078.94
2023-05-12T04:14:13.054Z,101081.31
2023-05-12T04:16:40.879Z,101065.03
2023-05-12T04:19:10.238Z,101073.72
2023-05-12T04:21:37.978Z,101066.31
2023-05-12T04:24:06.459Z,101068.66
2023-05-12T04:26:34.401Z,101086.53
2023-05-12T04:29:02.109Z,101078.34
2023-05-12T04:31:30.067Z,101065.97
2023-05-12T04:33:57.900Z,101047.28
2023-05-12T04:36:26.994Z,101074.72
2023-05-12T04:38:55.822Z,101076.34
2023-05-12T04:41:23.605Z,101049.88
2023-05-12T04:46:22.090Z,101060.75
2023-05-12T04:48:49.936Z,101084.03
2023-05-12T04:51:21.423Z,101072.22
2023-05-12T04:53:50.648Z,101078.44
2023-05-12T04:56:18.422Z,101138.28
2023-05-12T04:58:46.200Z,101152.81
2023-05-12T05:01:14.528Z,101175.16
2023-05-12T05:03:42.348Z,101137.53
2023-05-12T05:06:10.196Z,101047.81
2023-05-12T05:08:37.961Z,101136.91
2023-05-12T05:11:07.200Z,101123.66
2023-05-12T05:13:35.100Z,101111.81
2023-05-12T05:16:02.886Z,101135.81
2023-05-12T05:18:30.784Z,101171.34
2023-05-12T05:20:59.276Z,101019.84
2023-05-12T05:23:27.281Z,101034.09
2023-05-12T05:25:55.048Z,101051.69
2023-05-12T05:28:24.248Z,101096.50
2023-05-12T05:30:56.883Z,101100.91
2023-05-12T05:33:24.690Z,101169.97
2023-05-12T05:35:52.522Z,101007.72
2023-05-12T05:38:20.249Z,100949.22
2023-05-12T05:40:53.566Z,100871.91
2023-05-12T05:43:22.188Z,100822.25
2023-05-12T05:45:51.609Z,100873.50
2023-05-12T05:48:19.480Z,100948.59
2023-05-12T05:50:47.393Z,100924.81
2023-05-12T05:53:17.054Z,100978.63
2023-05-12T05:55:44.876Z,100926.78
2023-05-12T05:58:12.645Z,100917.03
2023-05-12T06:00:40.395Z,100873.09
2023-05-12T06:03:09.802Z,100920.72
2023-05-12T06:05:37.780Z,100917.97
2023-05-12T06:08:08.901Z,100977.22
2023-05-12T06:10:36.657Z,100862.69
2023-05-12T06:13:04.429Z,101009.25
2023-05-12T06:15:32.223Z,101128.13
2023-05-12T06:18:00.148Z,101034.69
2023-05-12T06:20:29.466Z,101056.53
2023-05-12T06:22:57.258Z,100922.72
2023-05-12T06:25:25.051Z,100904.53
2023-05-12T06:27:53.353Z,100825.41
2023-05-12T06:30:21.269Z,100892.09
2023-05-12T06:32:49.150Z,100920.81
2023-05-12T06:35:17.034Z,100879.06
2023-05-12T06:37:49.719Z,100860.84
2023-05-12T06:40:18.536Z,100946.03
2023-05-12T06:42:46.513Z,100851.63
2023-05-12T06:45:14.436Z,100881.88
2023-05-12T06:47:42.411Z,100926.50
2023-05-12T06:50:10.502Z,100779.97
2023-05-12T06:52:38.537Z,100857.59
2023-05-12T06:55:10.414Z,100931.81
2023-05-12T06:57:38.441Z,100783.09
2023-05-12T07:00:07.706Z,100833.97
2023-05-12T07:02:35.534Z,100761.63
2023-05-12T07:05:03.277Z,100829.34
2023-05-12T07:07:31.026Z,100793.88
2023-05-12T07:09:58.767Z,100845.19
2023-05-12T07:12:27.942Z,100798.84
2023-05-12T07:14:55.815Z,100826.34
2023-05-12T07:17:23.673Z,100698.34
2023-05-12T07:19:51.725Z,100758.09
2023-05-12T07:22:22.216Z,100823.75
2023-05-12T07:24:50.061Z,100719.38
2023-05-12T07:27:17.903Z,100740.31
2023-05-12T07:29:47.085Z,100857.69
2023-05-12T07:32:15.134Z,100727.59
2023-05-12T07:34:43.095Z,100701.13
2023-05-12T07:37:13.245Z,100740.66
2023-05-12T07:39:41.107Z,100765.50
2023-05-12T07:42:09.739Z,100692.88
2023-05-12T07:44:37.837Z,100733.84
2023-05-12T07:47:07.252Z,100797.50
2023-05-12T07:49:35.034Z,100702.84
2023-05-12T07:52:03.066Z,100658.09
2023-05-12T07:54:30.858Z,100765.97
2023-05-12T07:56:58.830Z,100717.66
2023-05-12T07:59:26.872Z,100690.75
2023-05-12T08:01:54.692Z,100760.34
2023-05-12T08:04:23.840Z,100711.81
2023-05-12T08:06:51.644Z,100612.47
2023-05-12T08:09:19.531Z,100588.59
2023-05-12T08:11:50.008Z,100697.44
2023-05-12T08:14:19.398Z,100583.78
2023-05-12T08:16:48.019Z,100718.53
2023-05-12T08:19:15.814Z,100691.06
2023-05-12T08:21:45.703Z,100663.69
2023-05-12T08:24:13.548Z,100595.31
2023-05-12T08:26:41.406Z,100603.53
2023-05-12T08:29:13.988Z,100598.44
2023-05-12T08:31:42.078Z,100581.81
2023-05-12T08:34:11.085Z,100508.19
2023-05-12T08:36:39.833Z,100505.31
2023-05-12T08:39:10.332Z,100464.63
2023-05-12T08:41:45.664Z,100578.69
2023-05-12T08:44:13.538Z,100413.84
2023-05-12T08:46:41.850Z,100582.28
2023-05-12T08:49:15.782Z,100507.03
2023-05-12T08:51:56.876Z,100349.75
2023-05-12T08:54:30.801Z,100352.91
2023-05-12T08:59:32.788Z,100354.16
2023-05-12T09:02:04.438Z,100300.59
2023-05-12T09:04:33.289Z,100378.78
2023-05-12T09:07:01.277Z,100250.28
2023-05-12T09:09:34.907Z,100274.94
2023-05-12T09:12:03.755Z,100374.16
2023-05-12T09:14:36.205Z,100491.94
2023-05-12T09:17:05.886Z,100366.28
2023-05-12T09:19:34.440Z,100397.66
2023-05-12T09:22:02.617Z,100331.03
2023-05-12T09:24:39.861Z,100342.75
2023-05-12T09:27:08.502Z,100427.63
2023-05-12T09:29:42.455Z,100418.00
2023-05-12T09:32:19.611Z,100385.47
2023-05-12T09:34:52.349Z,100344.03
2023-05-12T09:37:20.120Z,100315.47
2023-05-12T09:39:49.350Z,100372.75
2023-05-12T09:42:17.399Z,100295.13
2023-05-12T09:44:46.932Z,100338.72
2023-05-12T09:47:18.891Z,100420.84
2023-05-12T09:49:49.202Z,100482.78
2023-05-12T09:52:17.700Z,100264.81
2023-05-12T09:54:45.943Z,100312.16
2023-05-12T09:57:17.901Z,100352.03
2023-05-12T09:59:47.570Z,100394.84
2023-05-12T10:02:18.179Z,100427.25
2023-05-12T10:04:53.966Z,100371.59
2023-05-12T10:07:27.487Z,100323.84
2023-05-12T10:09:59.666Z,100331.22
2023-05-12T10:12:29.684Z,100287.75
2023-05-12T10:14:57.964Z,100393.88
2023-05-12T10:17:29.043Z,100316.75
2023-05-12T10:19:59.969Z,100349.78
2023-05-12T10:22:30.077Z,100364.09
2023-05-12T10:24:58.616Z,100403.31
2023-05-12T10:27:26.414Z,100395.97
2023-05-12T10:29:56.319Z,100347.09
2023-05-12T10:32:24.225Z,100373.44
2023-05-12T10:34:52.272Z,100280.63
2023-05-12T10:37:20.228Z,100376.47
2023-05-12T10:39:49.574Z,100246.84
2023-05-12T10:42:23.048Z,100447.47
2023-05-12T10:44:52.095Z,100355.38
2023-05-12T10:47:27.070Z,100309.75
2023-05-12T10:49:58.455Z,100403.94
2023-05-12T10:52:26.372Z,100361.91
2023-05-12T10:55:01.991Z,100257.78
2023-05-12T10:57:31.923Z,100218.06
2023-05-12T11:00:03.511Z,100311.31
2023-05-12T11:02:36.063Z,100317.25
2023-05-12T11:05:13.063Z,100444.81
2023-05-12T11:07:42.007Z,100356.72
2023-05-12T11:10:13.256Z,100350.59
2023-05-12T11:12:44.318Z,100415.31
2023-05-12T11:15:13.558Z,100430.66
2023-05-12T11:17:43.583Z,100497.47
2023-05-12T11:20:12.322Z,100447.59
2023-05-12T11:22:42.648Z,100442.69
2023-05-12T11:25:12.187Z,100323.06
2023-05-12T11:27:43.459Z,100412.50
2023-05-12T11:30:12.093Z,100336.19
2023-05-12T11:32:41.414Z,100333.63
2023-05-12T11:35:12.572Z,100222.00
2023-05-12T11:37:41.574Z,100328.53
2023-05-12T11:40:15.632Z,100321.22
2023-05-12T11:42:48.307Z,100241.59
2023-05-12T11:45:28.708Z,100296.03
2023-05-12T11:48:08.788Z,100292.59
2023-05-12T11:50:41.132Z,100368.63
2023-05-12T11:53:15.344Z,100381.03
2023-05-12T11:55:49.346Z,100274.44
2023-05-12T11:58:22.871Z,100314.41
2023-05-12T12:00:50.669Z,100307.59
2023-05-12T12:03:21.360Z,100313.72
2023-05-12T12:06:01.020Z,100237.63
2023-05-12T12:08:29.137Z,100333.75
2023-05-12T12:11:00.032Z,100290.53
2023-05-12T12:13:29.846Z,100395.09
2023-05-12T12:15:57.788Z,100300.75
2023-05-12T12:18:25.910Z,100390.34
2023-05-12T12:20:53.764Z,100327.72
2023-05-12T12:23:23.058Z,100247.91
2023-05-12T12:25:50.969Z,100217.72
2023-05-12T12:28:18.794Z,100287.69
2023-05-12T12:30:46.686Z,100339.19
2023-05-12T12:33:14.493Z,100343.28
2023-05-12T12:35:42.289Z,100370.00
2023-05-12T12:38:10.088Z,100370.34
2023-05-12T12:40:39.191Z,100337.66
2023-05-12T12:43:07.141Z,100372.56
2023-05-12T12:45:34.919Z,100364.41
2023-05-12T12:48:02.722Z,100423.53
2023-05-12T12:50:30.565Z,100392.16
2023-05-12T12:52:58.344Z,100373.25
2023-05-12T12:55:26.139Z,100406.47
2023-05-12T12:57:58.058Z,100410.72
2023-05-12T13:00:27.744Z,100400.06
2023-05-12T13:02:55.733Z,100454.78
2023-05-12T13:05:23.770Z,100487.50
2023-05-12T13:07:52.572Z,100460.13
2023-05-12T13:10:20.481Z,100402.03
2023-05-12T13:12:49.959Z,100462.63
2023-05-12T13:15:19.807Z,100373.94
2023-05-12T13:17:47.766Z,100340.38
2023-05-12T13:20:16.910Z,100405.28
2023-05-12T13:22:45.859Z,100374.97
2023-05-12T13:25:13.663Z,100390.59
2023-05-12T13:27:41.598Z,100388.91
2023-05-12T13:30:13.360Z,100388.56
2023-05-12T13:32:42.980Z,100375.56
2023-05-12T13:35:11.017Z,100438.94
2023-05-12T13:37:38.876Z,100451.22
2023-05-12T13:40:08.179Z,100380.13
2023-05-12T13:42:35.962Z,100425.31
2023-05-12T13:45:04.378Z,100385.66
2023-05-12T13:47:32.349Z,100380.25
2023-05-12T13:50:02.228Z,100416.00
2023-05-12T13:52:30.050Z,100347.88
2023-05-12T13:54:59.979Z,100397.22
2023-05-12T13:57:27.852Z,100351.28
2023-05-12T13:59:57.800Z,100405.06
2023-05-12T14:02:27.965Z,100296.97
2023-05-12T14:04:56.506Z,100390.28
2023-05-12T14:07:25.717Z,100348.41
2023-05-12T14:09:53.610Z,100346.72
2023-05-12T14:12:21.852Z,100281.44
2023-05-12T14:14:50.561Z,100325.81
2023-05-12T14:17:18.748Z,100334.81
2023-05-12T14:19:46.945Z,100383.25
2023-05-12T14:22:25.700Z,100331.69
2023-05-12T14:24:55.876Z,100355.69
2023-05-12T14:27:23.847Z,100309.31
2023-05-12T14:29:51.674Z,100356.50
2023-05-12T14:32:19.471Z,100215.84
2023-05-12T14:34:47.259Z,100255.69
2023-05-12T14:37:21.069Z,100286.31
2023-05-12T14:39:48.932Z,100280.03
2023-05-12T14:42:20.004Z,100333.47
2023-05-12T14:44:47.747Z,100311.69
2023-05-12T14:47:15.528Z,100360.06
2023-05-12T14:49:45.442Z,100386.69
2023-05-12T14:52:13.553Z,100341.50
2023-05-12T14:54:41.341Z,100312.19
2023-05-12T14:57:09.138Z,100356.44
2023-05-12T14:59:38.624Z,100367.84
2023-05-12T15:02:06.657Z,100343.00
2023-05-12T15:04:35.549Z,100344.56
2023-05-12T15:07:04.970Z,100358.69
2023-05-12T15:09:32.720Z,100345.00
2023-05-12T15:12:00.832Z,100434.19
2023-05-12T15:14:30.903Z,100387.22
2023-05-12T15:17:01.166Z,100330.31
2023-05-12T15:19:28.988Z,100327.03
2023-05-12T15:21:56.764Z,100385.28
2023-05-12T15:24:24.621Z,100430.66
2023-05-12T15:26:52.496Z,100467.28
2023-05-12T15:29:20.208Z,100390.19
2023-05-12T15:31:48.781Z,100396.22
2023-05-12T15:34:19.301Z,100328.91
2023-05-12T15:36:48.953Z,100328.22
2023-05-12T15:39:17.070Z,100370.69
2023-05-12T15:41:44.853Z,100393.06
2023-05-12T15:44:12.596Z,100421.63
2023-05-12T15:46:40.567Z,100414.91
2023-05-12T15:49:08.629Z,100393.84
2023-05-12T15:51:37.915Z,100376.84
2023-05-12T15:54:09.145Z,100393.84
2023-05-12T15:56:37.530Z,100368.84
2023-05-12T15:59:06.131Z,100378.59
2023-05-12T16:01:34.289Z,100399.50
2023-05-12T16:04:02.214Z,100454.75
2023-05-12T16:06:30.989Z,100347.31
2023-05-12T16:09:00.134Z,100359.53
2023-05-12T16:11:32.036Z,100380.63
2023-05-12T16:13:59.914Z,100415.97
2023-05-12T16:16:27.825Z,100448.78
2023-05-12T16:18:55.700Z,100405.06
2023-05-12T16:21:23.466Z,100339.78
2023-05-12T16:23:51.312Z,100351.16
2023-05-12T16:26:20.454Z,100343.47
2023-05-12T16:28:48.254Z,100306.03
2023-05-12T16:31:18.792Z,100271.34
2023-05-12T16:33:46.773Z,100261.56
2023-05-12T16:36:15.109Z,100302.31
2023-05-12T16:38:44.011Z,100278.34
2023-05-12T16:41:11.836Z,100280.78
2023-05-12T16:43:40.987Z,100264.38
2023-05-12T16:46:08.825Z,100241.25
2023-05-12T16:48:36.827Z,100266.03
2023-05-12T16:51:06.632Z,100268.38
2023-05-12T16:53:35.080Z,100286.53
2023-05-12T16:56:03.365Z,100316.59
2023-05-12T16:58:32.173Z,100320.28
2023-05-12T17:01:02.167Z,100286.59
2023-05-12T17:03:30.502Z,100270.28
2023-05-12T17:05:58.524Z,100266.31
2023-05-12T17:08:26.343Z,100300.41
2023-05-12T17:10:54.255Z,100279.69
2023-05-12T17:13:22.333Z,100293.72
2023-05-12T17:15:50.399Z,100259.34
2023-05-12T17:18:19.530Z,100280.34
2023-05-12T17:20:47.329Z,100316.13
2023-05-12T17:23:15.468Z,100273.84
2023-05-12T17:25:43.278Z,100275.84
2023-05-12T17:28:11.421Z,100255.91
2023-05-12T17:30:39.126Z,100278.25
2023-05-12T17:33:07.871Z,100292.56
2023-05-12T17:35:37.210Z,100302.91
2023-05-12T17:38:05.182Z,100279.22
2023-05-12T17:40:33.066Z,100278.81
2023-05-12T17:43:00.916Z,100305.69
2023-05-12T17:45:28.732Z,100295.13
2023-05-12T17:47:56.869Z,100297.84
2023-05-12T17:50:24.804Z,100264.06
2023-05-12T17:52:54.861Z,100279.91
2023-05-12T17:55:23.068Z,100288.81
2023-05-12T17:57:51.284Z,100290.81
2023-05-12T18:00:19.299Z,100305.69
2023-05-12T18:02:47.035Z,100314.72
2023-05-12T18:05:14.822Z,100326.41
2023-05-12T18:07:42.694Z,100331.41
2023-05-12T18:10:12.710Z,100317.75
2023-05-12T18:12:40.460Z,100308.31
2023-05-12T18:15:09.966Z,100312.16
2023-05-12T18:17:38.026Z,100315.88
2023-05-12T18:20:07.219Z,100316.00
2023-05-12T18:22:34.973Z,100330.53
2023-05-12T18:25:02.731Z,100349.72
2023-05-12T18:27:31.811Z,100348.44
2023-05-12T18:29:59.566Z,100357.66
2023-05-12T18:32:27.474Z,100356.91
2023-05-12T18:34:55.371Z,100361.44
2023-05-12T18:37:23.469Z,100374.63
2023-05-12T18:39:53.342Z,100387.97
2023-05-12T18:42:21.191Z,100388.66
2023-05-12T18:44:50.400Z,100416.16
2023-05-12T18:47:18.152Z,100407.53
2023-05-12T18:49:45.906Z,100418.41
2023-05-12T18:52:13.837Z,100444.75
2023-05-12T18:54:41.588Z,100446.50
2023-05-12T18:57:09.422Z,100461.13
2023-05-12T18:59:37.205Z,100471.84
2023-05-12T19:02:06.401Z,100492.34
2023-05-12T19:04:34.113Z,100487.59
2023-05-12T19:07:01.966Z,100510.78
2023-05-12T19:09:29.779Z,100525.50
2023-05-12T19:12:01.156Z,100538.50
2023-05-12T19:14:28.905Z,100539.97
2023-05-12T19:16:56.632Z,100573.22
2023-05-12T19:19:25.737Z,100576.75
2023-05-12T19:21:53.724Z,100579.81
2023-05-12T19:24:24.483Z,100593.00
2023-05-12T19:26:52.391Z,100604.25
2023-05-12T19:29:20.102Z,100613.53
2023-05-12T19:31:48.067Z,100617.81
2023-05-12T19:34:16.326Z,100627.84
2023-05-12T19:36:45.537Z,100659.81
2023-05-12T19:39:13.312Z,100661.47
2023-05-12T19:41:41.123Z,100684.28
2023-05-12T19:44:08.910Z,100694.84
2023-05-12T19:46:36.928Z,100704.69
2023-05-12T19:49:05.884Z,100727.09
2023-05-12T19:51:33.693Z,100719.91
2023-05-12T19:54:04.835Z,100734.47
2023-05-12T19:56:32.850Z,100745.25
2023-05-12T19:59:00.795Z,100758.28
2023-05-12T20:01:28.692Z,100803.91
2023-05-12T20:03:56.485Z,100811.25
2023-05-12T20:06:25.023Z,100823.41
2023-05-12T20:08:52.727Z,100866.94
2023-05-12T20:11:21.842Z,100879.84
2023-05-12T20:13:52.008Z,100891.81
2023-05-12T20:16:19.752Z,100922.28
2023-05-12T20:18:47.620Z,100931.72
2023-05-12T20:21:15.470Z,100944.63
2023-05-12T20:23:43.317Z,100957.22
2023-05-12T20:26:11.210Z,100972.69
2023-05-12T20:28:41.196Z,100990.69
2023-05-12T20:31:10.030Z,101007.22
2023-05-12T20:33:37.894Z,101004.00
2023-05-12T20:36:06.554Z,101019.06
2023-05-12T20:38:34.345Z,101035.97
2023-05-12T20:41:05.273Z,101052.13
2023-05-12T20:43:33.345Z,101049.72
2023-05-12T20:46:04.786Z,101055.97
2023-05-12T20:48:32.885Z,101063.28
2023-05-12T20:51:00.723Z,101074.34
2023-05-12T20:53:28.950Z,101087.59
2023-05-12T20:55:56.646Z,101081.94
2023-05-12T20:58:24.390Z,101101.75
2023-05-12T21:00:52.105Z,101103.06
2023-05-12T21:03:22.818Z,101098.84
2023-05-12T21:05:50.540Z,101100.09
2023-05-12T21:08:18.280Z,101118.84
2023-05-12T21:10:46.269Z,101119.22
2023-05-12T21:13:14.011Z,101134.50
2023-05-12T21:15:43.580Z,101117.47
2023-05-12T21:18:13.142Z,101133.81
2023-05-12T21:20:42.372Z,101134.38
2023-05-12T21:23:11.613Z,101146.25
2023-05-12T21:25:39.470Z,101138.84
2023-05-12T21:28:07.461Z,101151.22
2023-05-12T21:30:37.064Z,101151.78
2023-05-12T21:33:05.472Z,101170.78
2023-05-12T21:35:33.353Z,101166.56
2023-05-12T21:38:02.555Z,101177.50
2023-05-12T21:40:30.626Z,101171.63
2023-05-12T21:42:58.424Z,101177.34
2023-05-12T21:45:26.218Z,101184.69
2023-05-12T21:47:54.025Z,101186.75
2023-05-12T21:50:22.688Z,101186.25
2023-05-12T21:52:51.049Z,101201.59
2023-05-12T21:55:20.255Z,101189.41
2023-05-12T21:57:48.103Z,101200.22
2023-05-12T22:00:19.907Z,101213.84
2023-05-12T22:02:48.746Z,101198.66
2023-05-12T22:05:16.596Z,101215.81
2023-05-12T22:07:44.457Z,101217.81
2023-05-12T22:10:12.197Z,101220.66
2023-05-12T22:12:41.874Z,101232.53
2023-05-12T22:15:10.241Z,101255.38
2023-05-12T22:17:39.712Z,101259.88
2023-05-12T22:20:09.176Z,101242.38
2023-05-12T22:22:37.045Z,101258.94
2023-05-12T22:25:05.337Z,101279.69
2023-05-12T22:27:33.160Z,101292.56
2023-05-12T22:30:02.375Z,101277.69
2023-05-12T22:32:30.256Z,101283.97
2023-05-12T22:34:57.994Z,101272.53
2023-05-12T22:37:26.053Z,101258.09
2023-05-12T22:39:53.821Z,101282.50
2023-05-12T22:42:21.717Z,101306.34
2023-05-12T22:44:49.588Z,101308.63
2023-05-12T22:47:18.871Z,101352.81
2023-05-12T22:49:46.739Z,101360.28
2023-05-12T22:52:14.496Z,101330.16
2023-05-12T22:54:42.363Z,101337.69
2023-05-12T22:57:10.223Z,101364.66
2023-05-12T22:59:38.156Z,101370.88
2023-05-12T23:02:06.452Z,101385.22
2023-05-12T23:04:35.858Z,101302.75
2023-05-12T23:07:03.710Z,101320.09
2023-05-12T23:09:31.756Z,101305.50
2023-05-12T23:11:59.591Z,101347.16
2023-05-12T23:14:27.432Z,101330.97
2023-05-12T23:16:55.287Z,101309.81
2023-05-12T23:19:23.631Z,101318.03
2023-05-12T23:21:52.825Z,101311.06
2023-05-12T23:24:20.684Z,101316.59
2023-05-12T23:26:48.385Z,101301.59
2023-05-12T23:29:16.173Z,101321.22
2023-05-12T23:31:43.955Z,101316.88
2023-05-12T23:34:11.762Z,101326.75
2023-05-12T23:36:39.646Z,101320.66
2023-05-12T23:39:09.642Z,101344.94
2023-05-12T23:41:37.571Z,101342.47
2023-05-12T23:44:05.999Z,101347.03
2023-05-12T23:46:33.929Z,101346.31
2023-05-12T23:49:01.832Z,101348.19
2023-05-12T23:51:29.667Z,101335.75
2023-05-12T23:53:57.467Z,101336.03
2023-05-12T23:56:26.587Z,101329.59
2023-05-12T23:58:54.249Z,101345.16
